ENCN

Kristiansand/Kjevik

Airport
ICAO code
ENCN
Summary
ICAO Region
EUR
ICAO Territory
Location

Kristiansand, Norway,

Elevation
57 ft
Coordinates
58° 12' 15" N , 8° 5' 7" E
KCC
Metar
ENCN 251920Z 17010KT 9999 -RA SCT010 BKN014 16/15 Q1009

Description

Airport serving Kristiansand, southern Norway.

Climatology

Temperate Marine climate/Oceanic climate (Köppen climate classification Cfb). Moderately cool summer and comparatively warm winter with a temperature range of only 14°C. Prevailing south-westerly winds from the Atlantic Ocean.

Runways

Designator Length Width Surface Rops
4/22 2030 45 ASP Yes/Yes

Airport map

Aerial View

SKYbrary Partners:

Safety knowledge contributed by: